Time Latitude Longitude Accuracy (66% radius in meters) Altitude (meters) Speed (km/hour) Bearing (degrees) Battery (%) GPS flag
07:10:05 57.204872 60.114478 4.2880001068115 299.83013916016 1.8899999856949 165.10000610352 88 1 delete
07:10:00 57.204962 60.114497 4.2880001068115 297.65130615234 1.9400000572205 147 88 1 delete
07:09:53 57.205059 60.114424 4.2880001068115 300.21960449219 1.8099999427795 110.59999847412 88 1 delete
07:09:47 57.205087 60.114256 4.2880001068115 299.30560302734 1.6799999475479 101 88 1 delete
07:09:41 57.205046 60.114135 5.3600001335144 298.72143554688 1.960000038147 40.099998474121 88 1 delete
07:09:33 57.205082 60.113977 5.3600001335144 295.42504882812 2.1600000858307 99.900001525879 88 1 delete
07:09:31 57.205099 60.113913 5.3600001335144 294.01629638672 2.1600000858307 104 88 1 delete
07:09:28 57.205114 60.113819 5.3600001335144 294.16943359375 2.0899999141693 121.69999694824 88 1 delete
07:09:23 57.205174 60.113672 5.3600001335144 294.23205566406 2.1400001049042 109.09999847412 88 1 delete
07:09:20 57.205209 60.113584 5.3600001335144 293.88397216797 2.0199999809265 103.40000152588 88 1 delete
07:09:18 57.205227 60.113511 4.2880001068115 294.42694091797 2.1500000953674 95.099998474121 88 1 delete
07:09:14 57.205269 60.113334 5.3600001335144 292.63232421875 2.0499999523163 114.30000305176 88 1 delete
07:09:10 57.205340 60.113185 5.3600001335144 290.19506835938 1.9700000286102 131.30000305176 88 1 delete
07:09:06 57.205405 60.113051 5.3600001335144 289.96997070312 1.7799999713898 138.89999389648 88 1 delete
07:09:01 57.205475 60.112908 4.2880001068115 290.2568359375 1.6000000238419 126.69999694824 88 1 delete
07:08:59 57.205497 60.112837 4.2880001068115 288.95123291016 1.5499999523163 117.19999694824 88 1 delete
07:08:57 57.205515 60.112757 4.2880001068115 288.46362304688 1.5099999904633 105.69999694824 88 1 delete
07:08:53 57.205540 60.112582 4.2880001068115 286.26428222656 1.4299999475479 100 88 1 delete
07:08:49 57.205545 60.112412 4.2880001068115 284.44885253906 1.3500000238419 93.699996948242 88 1 delete
07:08:48 57.205545 60.112372 4.2880001068115 284.94085693359 1.3400000333786 87.800003051758 88 1 delete
07:08:43 57.205520 60.112206 4.2880001068115 285.25830078125 1.2799999713898 59.5 88 1 delete
07:08:38 57.205487 60.112114 5.3600001335144 287.91064453125 1.2000000476837 74 88 1 delete
07:08:33 57.205497 60.112024 6.4320001602173 286.30297851562 2.7000000476837 107.5 88 1 delete
07:08:29 57.205554 60.111886 5.3600001335144 285.17071533203 3.0499999523163 136.19999694824 88 1 delete
07:08:28 57.205571 60.111837 5.3600001335144 284.2314453125 3.0299999713898 108.5 88 1 delete
07:08:26 57.205594 60.111736 5.3600001335144 282.81982421875 2.8800001144409 95.599998474121 88 1 delete
07:08:22 57.205671 60.111582 4.2880001068115 282.8115234375 3.0599999427795 127.90000152588 88 1 delete
07:08:19 57.205765 60.111522 3.2160000801086 282.55682373047 2.7999999523163 145.30000305176 88 1 delete
07:08:17 57.205839 60.111548 3.2160000801086 280.41674804688 2.289999961853 193.10000610352 88 1 delete
07:08:16 57.205869 60.111571 3.2160000801086 280.64837646484 2.1199998855591 197.19999694824 88 1 delete
07:08:13 57.205953 60.111639 3.2160000801086 282.14385986328 1.9500000476837 205.69999694824 88 1 delete
07:08:09 57.206045 60.111742 3.2160000801086 284.05139160156 1.6799999475479 215.69999694824 88 1 delete
07:08:06 57.206098 60.111831 3.2160000801086 284.38598632812 1.5900000333786 233.39999389648 88 1 delete
07:08:04 57.206126 60.111890 3.2160000801086 285.21807861328 1.4900000095367 230.5 88 1 delete
07:07:58 57.206198 60.112011 4.2880001068115 286.564453125 1.3500000238419 215.19999694824 88 1 delete
07:07:56 57.206219 60.112033 5.3600001335144 286.97418212891 1.3300000429153 178.30000305176 88 1 delete
07:07:53 57.206289 60.112015 5.3600001335144 286.82763671875 3.1099998950958 163.30000305176 88 1 delete
07:07:49 57.206393 60.111967 4.2880001068115 284.83081054688 3.0799999237061 165.30000305176 88 1 delete
07:07:46 57.206458 60.111958 3.2160000801086 284.43212890625 3.2300000190735 199 88 1 delete
07:07:45 57.206483 60.111974 3.2160000801086 284.97387695312 3.1900000572205 223.80000305176 88 1 delete
07:07:41 57.206564 60.112044 3.2160000801086 283.75988769531 3.25 197.39999389648 88 1 delete
07:07:37 57.206657 60.112132 3.2160000801086 285.45733642578 3.1900000572205 190.60000610352 88 1 delete
07:07:35 57.206715 60.112156 3.2160000801086 286.015625 3.2300000190735 189.10000610352 88 1 delete
07:07:34 57.206748 60.112165 3.2160000801086 286.01257324219 3.1800000667572 190.5 88 1 delete
07:07:31 57.206839 60.112197 3.2160000801086 282.77703857422 3.1500000953674 222 88 1 delete
07:07:27 57.206918 60.112335 4.2880001068115 284.91662597656 4.1199998855591 209.5 88 1 delete
07:07:25 57.206978 60.112398 3.2160000801086 286.48382568359 4.3299999237061 207.69999694824 88 1 delete
07:07:24 57.207008 60.112430 3.2160000801086 286.66052246094 4.4000000953674 212.10000610352 88 1 delete
07:07:21 57.207114 60.112528 5.3600001335144 286.86767578125 4.8200001716614 207.10000610352 88 1 delete
07:07:19 57.207192 60.112628 5.3600001335144 286.31896972656 5.3000001907349 218.19999694824 88 1 delete